sensor_id;sensor_type;location;lat;lon;timestamp;P1;durP1;ratioP1;P2;durP2;ratioP2
54909;SDS011;63189;51.240;9.964;2022-11-09T00:00:32;3.33;;;1.80;;
54909;SDS011;63189;51.240;9.964;2022-11-09T00:02:57;3.45;;;1.80;;
54909;SDS011;63189;51.240;9.964;2022-11-09T00:05:22;3.55;;;1.70;;
54909;SDS011;63189;51.240;9.964;2022-11-09T00:07:48;2.85;;;1.70;;
54909;SDS011;63189;51.240;9.964;2022-11-09T00:10:13;4.85;;;1.80;;
54909;SDS011;63189;51.240;9.964;2022-11-09T00:12:39;4.15;;;2.13;;
54909;SDS011;63189;51.240;9.964;2022-11-09T00:15:04;4.68;;;1.92;;
54909;SDS011;63189;51.240;9.964;2022-11-09T00:17:29;4.70;;;1.88;;
54909;SDS011;63189;51.240;9.964;2022-11-09T00:19:55;2.20;;;1.38;;
54909;SDS011;63189;51.240;9.964;2022-11-09T00:22:20;5.43;;;1.70;;
54909;SDS011;63189;51.240;9.964;2022-11-09T00:24:46;3.53;;;1.88;;
54909;SDS011;63189;51.240;9.964;2022-11-09T00:27:11;3.10;;;1.63;;
54909;SDS011;63189;51.240;9.964;2022-11-09T00:29:36;3.13;;;1.73;;
54909;SDS011;63189;51.240;9.964;2022-11-09T00:32:02;3.08;;;1.67;;
54909;SDS011;63189;51.240;9.964;2022-11-09T00:34:27;3.03;;;1.70;;
54909;SDS011;63189;51.240;9.964;2022-11-09T00:36:52;7.35;;;2.15;;
54909;SDS011;63189;51.240;9.964;2022-11-09T00:39:18;3.05;;;1.88;;
54909;SDS011;63189;51.240;9.964;2022-11-09T00:41:43;5.18;;;2.15;;
54909;SDS011;63189;51.240;9.964;2022-11-09T00:44:08;2.72;;;1.65;;
54909;SDS011;63189;51.240;9.964;2022-11-09T00:46:33;5.03;;;2.03;;
54909;SDS011;63189;51.240;9.964;2022-11-09T00:48:59;2.72;;;1.63;;
54909;SDS011;63189;51.240;9.964;2022-11-09T00:51:24;5.40;;;1.80;;
54909;SDS011;63189;51.240;9.964;2022-11-09T00:53:49;4.03;;;2.00;;
54909;SDS011;63189;51.240;9.964;2022-11-09T00:56:18;2.58;;;1.65;;
54909;SDS011;63189;51.240;9.964;2022-11-09T00:58:44;3.17;;;1.40;;
54909;SDS011;63189;51.240;9.964;2022-11-09T01:01:10;6.57;;;2.30;;
54909;SDS011;63189;51.240;9.964;2022-11-09T01:03:37;3.15;;;1.60;;
54909;SDS011;63189;51.240;9.964;2022-11-09T01:06:03;3.88;;;1.63;;
54909;SDS011;63189;51.240;9.964;2022-11-09T01:08:29;3.75;;;1.75;;
54909;SDS011;63189;51.240;9.964;2022-11-09T01:10:56;3.90;;;1.85;;
54909;SDS011;63189;51.240;9.964;2022-11-09T01:13:23;3.75;;;1.75;;
54909;SDS011;63189;51.240;9.964;2022-11-09T01:15:52;5.20;;;2.10;;
54909;SDS011;63189;51.240;9.964;2022-11-09T01:18:18;3.55;;;1.67;;
54909;SDS011;63189;51.240;9.964;2022-11-09T01:20:45;4.78;;;1.88;;
54909;SDS011;63189;51.240;9.964;2022-11-09T01:23:12;3.03;;;1.80;;
54909;SDS011;63189;51.240;9.964;2022-11-09T01:25:39;4.82;;;1.58;;
54909;SDS011;63189;51.240;9.964;2022-11-09T01:28:05;4.28;;;1.75;;
54909;SDS011;63189;51.240;9.964;2022-11-09T01:30:38;2.70;;;1.67;;
54909;SDS011;63189;51.240;9.964;2022-11-09T01:33:06;3.53;;;1.48;;
54909;SDS011;63189;51.240;9.964;2022-11-09T01:35:37;4.63;;;1.60;;
54909;SDS011;63189;51.240;9.964;2022-11-09T01:38:04;2.58;;;1.65;;
54909;SDS011;63189;51.240;9.964;2022-11-09T01:40:31;4.18;;;1.90;;
54909;SDS011;63189;51.240;9.964;2022-11-09T01:42:58;7.03;;;1.98;;
54909;SDS011;63189;51.240;9.964;2022-11-09T01:45:27;3.53;;;2.20;;
54909;SDS011;63189;51.240;9.964;2022-11-09T01:50:35;5.00;;;2.10;;
54909;SDS011;63189;51.240;9.964;2022-11-09T01:53:17;2.55;;;1.65;;
54909;SDS011;63189;51.240;9.964;2022-11-09T01:55:46;4.32;;;2.03;;
54909;SDS011;63189;51.240;9.964;2022-11-09T01:58:17;5.35;;;1.95;;
54909;SDS011;63189;51.240;9.964;2022-11-09T02:00:47;3.00;;;1.52;;
54909;SDS011;63189;51.240;9.964;2022-11-09T02:03:16;4.28;;;1.42;;
54909;SDS011;63189;51.240;9.964;2022-11-09T02:05:45;3.38;;;1.70;;
54909;SDS011;63189;51.240;9.964;2022-11-09T02:08:13;5.45;;;1.92;;
54909;SDS011;63189;51.240;9.964;2022-11-09T02:13:13;4.25;;;2.03;;
54909;SDS011;63189;51.240;9.964;2022-11-09T02:15:41;4.00;;;1.92;;
54909;SDS011;63189;51.240;9.964;2022-11-09T02:18:06;3.42;;;1.23;;
54909;SDS011;63189;51.240;9.964;2022-11-09T02:20:54;3.33;;;1.70;;
54909;SDS011;63189;51.240;9.964;2022-11-09T02:23:19;2.53;;;1.73;;
54909;SDS011;63189;51.240;9.964;2022-11-09T02:25:47;2.10;;;1.40;;
54909;SDS011;63189;51.240;9.964;2022-11-09T02:28:16;2.42;;;1.40;;
54909;SDS011;63189;51.240;9.964;2022-11-09T02:30:42;3.72;;;1.80;;
54909;SDS011;63189;51.240;9.964;2022-11-09T02:33:10;4.07;;;1.70;;
54909;SDS011;63189;51.240;9.964;2022-11-09T02:35:35;2.72;;;1.58;;
54909;SDS011;63189;51.240;9.964;2022-11-09T02:38:01;2.38;;;1.15;;
54909;SDS011;63189;51.240;9.964;2022-11-09T02:40:28;3.17;;;1.52;;
54909;SDS011;63189;51.240;9.964;2022-11-09T02:42:57;5.97;;;1.75;;
54909;SDS011;63189;51.240;9.964;2022-11-09T02:45:24;2.20;;;1.50;;
54909;SDS011;63189;51.240;9.964;2022-11-09T02:47:49;2.78;;;1.52;;
54909;SDS011;63189;51.240;9.964;2022-11-09T02:50:15;4.57;;;1.77;;
54909;SDS011;63189;51.240;9.964;2022-11-09T02:52:40;4.47;;;1.60;;
54909;SDS011;63189;51.240;9.964;2022-11-09T02:55:06;7.22;;;1.83;;
54909;SDS011;63189;51.240;9.964;2022-11-09T02:57:31;4.28;;;2.10;;
54909;SDS011;63189;51.240;9.964;2022-11-09T02:59:56;4.72;;;1.83;;
54909;SDS011;63189;51.240;9.964;2022-11-09T03:02:22;4.53;;;1.65;;
54909;SDS011;63189;51.240;9.964;2022-11-09T03:04:47;3.63;;;1.80;;
54909;SDS011;63189;51.240;9.964;2022-11-09T03:07:12;4.30;;;2.10;;
54909;SDS011;63189;51.240;9.964;2022-11-09T03:09:38;3.22;;;1.70;;
54909;SDS011;63189;51.240;9.964;2022-11-09T03:12:03;2.65;;;1.50;;
54909;SDS011;63189;51.240;9.964;2022-11-09T03:14:49;4.22;;;2.08;;
54909;SDS011;63189;51.240;9.964;2022-11-09T03:17:14;2.78;;;1.45;;
54909;SDS011;63189;51.240;9.964;2022-11-09T03:19:40;2.35;;;1.55;;
54909;SDS011;63189;51.240;9.964;2022-11-09T03:22:06;2.42;;;1.60;;
54909;SDS011;63189;51.240;9.964;2022-11-09T03:24:31;3.60;;;1.80;;
54909;SDS011;63189;51.240;9.964;2022-11-09T03:26:56;3.88;;;2.10;;
54909;SDS011;63189;51.240;9.964;2022-11-09T03:29:21;3.50;;;2.00;;
54909;SDS011;63189;51.240;9.964;2022-11-09T03:31:47;6.82;;;2.08;;
54909;SDS011;63189;51.240;9.964;2022-11-09T03:34:12;3.88;;;2.13;;
54909;SDS011;63189;51.240;9.964;2022-11-09T03:36:37;7.18;;;2.20;;
54909;SDS011;63189;51.240;9.964;2022-11-09T03:39:03;5.40;;;2.20;;
54909;SDS011;63189;51.240;9.964;2022-11-09T03:41:28;5.80;;;2.15;;
54909;SDS011;63189;51.240;9.964;2022-11-09T03:43:53;3.15;;;1.90;;
54909;SDS011;63189;51.240;9.964;2022-11-09T03:46:19;2.92;;;1.63;;
54909;SDS011;63189;51.240;9.964;2022-11-09T03:48:44;4.18;;;2.47;;
54909;SDS011;63189;51.240;9.964;2022-11-09T03:51:09;3.20;;;2.00;;
54909;SDS011;63189;51.240;9.964;2022-11-09T03:53:35;4.20;;;2.28;;
54909;SDS011;63189;51.240;9.964;2022-11-09T03:56:00;4.43;;;1.98;;
54909;SDS011;63189;51.240;9.964;2022-11-09T03:58:25;4.70;;;2.47;;
54909;SDS011;63189;51.240;9.964;2022-11-09T04:00:50;6.65;;;2.40;;
54909;SDS011;63189;51.240;9.964;2022-11-09T04:03:16;3.92;;;2.20;;
54909;SDS011;63189;51.240;9.964;2022-11-09T04:05:41;5.93;;;2.58;;
54909;SDS011;63189;51.240;9.964;2022-11-09T04:08:06;3.33;;;2.65;;
54909;SDS011;63189;51.240;9.964;2022-11-09T04:10:32;4.78;;;2.75;;
54909;SDS011;63189;51.240;9.964;2022-11-09T04:12:57;5.63;;;2.58;;
54909;SDS011;63189;51.240;9.964;2022-11-09T04:15:22;4.85;;;2.83;;
54909;SDS011;63189;51.240;9.964;2022-11-09T04:17:55;4.43;;;2.38;;
54909;SDS011;63189;51.240;9.964;2022-11-09T04:20:24;3.22;;;2.30;;
54909;SDS011;63189;51.240;9.964;2022-11-09T04:22:55;3.45;;;2.03;;
54909;SDS011;63189;51.240;9.964;2022-11-09T04:25:28;5.93;;;2.60;;
54909;SDS011;63189;51.240;9.964;2022-11-09T04:27:57;3.60;;;2.03;;
54909;SDS011;63189;51.240;9.964;2022-11-09T04:30:23;3.40;;;2.10;;
54909;SDS011;63189;51.240;9.964;2022-11-09T04:32:51;3.17;;;1.80;;
54909;SDS011;63189;51.240;9.964;2022-11-09T04:35:17;6.45;;;2.50;;
54909;SDS011;63189;51.240;9.964;2022-11-09T04:37:42;4.90;;;2.35;;
54909;SDS011;63189;51.240;9.964;2022-11-09T04:40:08;3.25;;;1.90;;
54909;SDS011;63189;51.240;9.964;2022-11-09T04:42:34;3.20;;;1.73;;
54909;SDS011;63189;51.240;9.964;2022-11-09T04:44:59;6.80;;;2.65;;
54909;SDS011;63189;51.240;9.964;2022-11-09T04:47:24;3.15;;;1.98;;
54909;SDS011;63189;51.240;9.964;2022-11-09T04:49:51;3.00;;;1.92;;
54909;SDS011;63189;51.240;9.964;2022-11-09T04:52:16;5.15;;;2.03;;
54909;SDS011;63189;51.240;9.964;2022-11-09T04:54:42;4.65;;;2.10;;
54909;SDS011;63189;51.240;9.964;2022-11-09T04:57:07;3.75;;;2.28;;
54909;SDS011;63189;51.240;9.964;2022-11-09T04:59:32;5.05;;;2.25;;
54909;SDS011;63189;51.240;9.964;2022-11-09T05:01:58;2.78;;;1.95;;
54909;SDS011;63189;51.240;9.964;2022-11-09T05:04:23;2.97;;;1.45;;
54909;SDS011;63189;51.240;9.964;2022-11-09T05:06:48;2.67;;;2.03;;
54909;SDS011;63189;51.240;9.964;2022-11-09T05:09:13;4.15;;;2.33;;
54909;SDS011;63189;51.240;9.964;2022-11-09T05:11:39;4.72;;;2.20;;
54909;SDS011;63189;51.240;9.964;2022-11-09T05:14:04;4.88;;;2.13;;
54909;SDS011;63189;51.240;9.964;2022-11-09T05:16:29;3.10;;;2.03;;
54909;SDS011;63189;51.240;9.964;2022-11-09T05:18:55;3.08;;;2.10;;
54909;SDS011;63189;51.240;9.964;2022-11-09T05:21:21;6.18;;;2.08;;
54909;SDS011;63189;51.240;9.964;2022-11-09T05:23:46;3.65;;;1.90;;
54909;SDS011;63189;51.240;9.964;2022-11-09T05:26:34;4.45;;;2.30;;
54909;SDS011;63189;51.240;9.964;2022-11-09T05:29:02;3.80;;;2.20;;
54909;SDS011;63189;51.240;9.964;2022-11-09T05:31:29;3.55;;;2.50;;
54909;SDS011;63189;51.240;9.964;2022-11-09T05:33:55;4.60;;;1.75;;
54909;SDS011;63189;51.240;9.964;2022-11-09T05:36:20;4.57;;;2.40;;
54909;SDS011;63189;51.240;9.964;2022-11-09T05:38:46;3.80;;;2.70;;
54909;SDS011;63189;51.240;9.964;2022-11-09T05:41:12;3.50;;;2.15;;
54909;SDS011;63189;51.240;9.964;2022-11-09T05:43:38;2.35;;;1.80;;
54909;SDS011;63189;51.240;9.964;2022-11-09T05:46:04;2.60;;;1.80;;
54909;SDS011;63189;51.240;9.964;2022-11-09T05:48:29;3.70;;;1.85;;
54909;SDS011;63189;51.240;9.964;2022-11-09T05:50:54;2.40;;;1.50;;
54909;SDS011;63189;51.240;9.964;2022-11-09T05:53:20;4.45;;;2.13;;
54909;SDS011;63189;51.240;9.964;2022-11-09T05:55:45;5.20;;;2.38;;
54909;SDS011;63189;51.240;9.964;2022-11-09T05:58:11;3.13;;;2.00;;
54909;SDS011;63189;51.240;9.964;2022-11-09T06:00:36;4.18;;;2.10;;
54909;SDS011;63189;51.240;9.964;2022-11-09T06:03:09;5.20;;;1.90;;
54909;SDS011;63189;51.240;9.964;2022-11-09T06:05:35;2.20;;;1.80;;
54909;SDS011;63189;51.240;9.964;2022-11-09T06:08:09;2.30;;;1.55;;
54909;SDS011;63189;51.240;9.964;2022-11-09T06:10:37;2.47;;;1.83;;
54909;SDS011;63189;51.240;9.964;2022-11-09T06:13:03;3.45;;;2.20;;
54909;SDS011;63189;51.240;9.964;2022-11-09T06:15:28;2.53;;;1.55;;
54909;SDS011;63189;51.240;9.964;2022-11-09T06:17:54;4.70;;;1.58;;
54909;SDS011;63189;51.240;9.964;2022-11-09T06:20:20;2.65;;;1.60;;
54909;SDS011;63189;51.240;9.964;2022-11-09T06:22:53;3.17;;;1.63;;
54909;SDS011;63189;51.240;9.964;2022-11-09T06:25:19;2.55;;;1.42;;
54909;SDS011;63189;51.240;9.964;2022-11-09T06:27:44;4.13;;;1.50;;
54909;SDS011;63189;51.240;9.964;2022-11-09T06:30:09;3.88;;;1.40;;
54909;SDS011;63189;51.240;9.964;2022-11-09T06:32:35;2.00;;;1.40;;
54909;SDS011;63189;51.240;9.964;2022-11-09T06:35:00;1.50;;;1.13;;
54909;SDS011;63189;51.240;9.964;2022-11-09T06:37:26;2.28;;;1.50;;
54909;SDS011;63189;51.240;9.964;2022-11-09T06:39:51;3.67;;;1.50;;
54909;SDS011;63189;51.240;9.964;2022-11-09T06:42:16;2.28;;;1.30;;
54909;SDS011;63189;51.240;9.964;2022-11-09T06:44:42;1.80;;;1.38;;
54909;SDS011;63189;51.240;9.964;2022-11-09T06:47:07;2.47;;;1.60;;
54909;SDS011;63189;51.240;9.964;2022-11-09T06:49:32;3.53;;;1.67;;
54909;SDS011;63189;51.240;9.964;2022-11-09T06:51:58;2.03;;;1.52;;
54909;SDS011;63189;51.240;9.964;2022-11-09T06:54:25;2.47;;;1.55;;
54909;SDS011;63189;51.240;9.964;2022-11-09T06:56:52;2.53;;;1.40;;
54909;SDS011;63189;51.240;9.964;2022-11-09T06:59:19;4.68;;;1.70;;
54909;SDS011;63189;51.240;9.964;2022-11-09T07:01:44;1.70;;;1.48;;
54909;SDS011;63189;51.240;9.964;2022-11-09T07:04:11;2.75;;;1.60;;
54909;SDS011;63189;51.240;9.964;2022-11-09T07:06:41;4.70;;;1.60;;
54909;SDS011;63189;51.240;9.964;2022-11-09T07:09:07;2.40;;;1.70;;
54909;SDS011;63189;51.240;9.964;2022-11-09T07:11:33;2.40;;;1.50;;
54909;SDS011;63189;51.240;9.964;2022-11-09T07:13:59;2.03;;;1.30;;
54909;SDS011;63189;51.240;9.964;2022-11-09T07:16:27;2.50;;;1.40;;
54909;SDS011;63189;51.240;9.964;2022-11-09T07:18:53;3.28;;;1.25;;
54909;SDS011;63189;51.240;9.964;2022-11-09T07:21:18;1.95;;;1.38;;
54909;SDS011;63189;51.240;9.964;2022-11-09T07:23:45;2.40;;;1.33;;
54909;SDS011;63189;51.240;9.964;2022-11-09T07:26:11;1.73;;;1.20;;
54909;SDS011;63189;51.240;9.964;2022-11-09T07:28:36;2.60;;;1.50;;
54909;SDS011;63189;51.240;9.964;2022-11-09T07:31:02;2.63;;;1.20;;
54909;SDS011;63189;51.240;9.964;2022-11-09T07:33:27;2.15;;;1.17;;
54909;SDS011;63189;51.240;9.964;2022-11-09T07:35:56;2.20;;;1.10;;
54909;SDS011;63189;51.240;9.964;2022-11-09T07:38:21;1.75;;;1.00;;
54909;SDS011;63189;51.240;9.964;2022-11-09T07:40:47;3.08;;;1.13;;
54909;SDS011;63189;51.240;9.964;2022-11-09T07:43:12;1.83;;;1.08;;
54909;SDS011;63189;51.240;9.964;2022-11-09T07:45:38;1.45;;;1.05;;
54909;SDS011;63189;51.240;9.964;2022-11-09T07:48:04;1.83;;;1.00;;
54909;SDS011;63189;51.240;9.964;2022-11-09T07:50:32;1.30;;;0.90;;
54909;SDS011;63189;51.240;9.964;2022-11-09T07:52:58;1.00;;;0.77;;
54909;SDS011;63189;51.240;9.964;2022-11-09T07:55:25;1.17;;;0.82;;
54909;SDS011;63189;51.240;9.964;2022-11-09T07:57:57;1.52;;;1.05;;
54909;SDS011;63189;51.240;9.964;2022-11-09T08:00:24;2.65;;;1.08;;
54909;SDS011;63189;51.240;9.964;2022-11-09T08:02:51;3.30;;;1.00;;
54909;SDS011;63189;51.240;9.964;2022-11-09T08:05:17;3.58;;;1.10;;
54909;SDS011;63189;51.240;9.964;2022-11-09T08:07:42;2.50;;;0.82;;
54909;SDS011;63189;51.240;9.964;2022-11-09T08:10:07;1.58;;;0.93;;
54909;SDS011;63189;51.240;9.964;2022-11-09T08:12:33;1.00;;;0.77;;
54909;SDS011;63189;51.240;9.964;2022-11-09T08:14:59;1.38;;;0.63;;
54909;SDS011;63189;51.240;9.964;2022-11-09T08:17:24;1.73;;;0.82;;
54909;SDS011;63189;51.240;9.964;2022-11-09T08:19:49;1.50;;;0.90;;
54909;SDS011;63189;51.240;9.964;2022-11-09T08:22:14;1.73;;;0.82;;
54909;SDS011;63189;51.240;9.964;2022-11-09T08:24:40;1.50;;;0.80;;
54909;SDS011;63189;51.240;9.964;2022-11-09T08:27:05;1.20;;;0.80;;
54909;SDS011;63189;51.240;9.964;2022-11-09T08:29:30;1.27;;;0.60;;
54909;SDS011;63189;51.240;9.964;2022-11-09T08:31:56;1.00;;;0.60;;
54909;SDS011;63189;51.240;9.964;2022-11-09T08:34:21;1.10;;;0.68;;
54909;SDS011;63189;51.240;9.964;2022-11-09T08:36:46;2.08;;;0.80;;
54909;SDS011;63189;51.240;9.964;2022-11-09T08:39:12;2.72;;;0.90;;
54909;SDS011;63189;51.240;9.964;2022-11-09T08:41:37;1.48;;;0.60;;
54909;SDS011;63189;51.240;9.964;2022-11-09T08:44:02;1.45;;;0.68;;
54909;SDS011;63189;51.240;9.964;2022-11-09T08:46:28;1.05;;;0.70;;
54909;SDS011;63189;51.240;9.964;2022-11-09T08:48:53;1.13;;;0.60;;
54909;SDS011;63189;51.240;9.964;2022-11-09T08:51:18;1.15;;;0.68;;
54909;SDS011;63189;51.240;9.964;2022-11-09T08:53:44;1.42;;;0.70;;
54909;SDS011;63189;51.240;9.964;2022-11-09T08:56:09;1.40;;;0.85;;
54909;SDS011;63189;51.240;9.964;2022-11-09T08:58:36;1.05;;;0.65;;
54909;SDS011;63189;51.240;9.964;2022-11-09T09:01:06;0.90;;;0.60;;
54909;SDS011;63189;51.240;9.964;2022-11-09T09:03:32;2.72;;;1.20;;
54909;SDS011;63189;51.240;9.964;2022-11-09T09:06:01;1.38;;;0.65;;
54909;SDS011;63189;51.240;9.964;2022-11-09T09:08:27;2.00;;;0.70;;
54909;SDS011;63189;51.240;9.964;2022-11-09T09:10:52;0.90;;;0.50;;
54909;SDS011;63189;51.240;9.964;2022-11-09T09:13:18;1.33;;;0.50;;
54909;SDS011;63189;51.240;9.964;2022-11-09T09:15:46;0.93;;;0.60;;
54909;SDS011;63189;51.240;9.964;2022-11-09T09:18:12;0.80;;;0.50;;
54909;SDS011;63189;51.240;9.964;2022-11-09T09:20:37;0.55;;;0.40;;
54909;SDS011;63189;51.240;9.964;2022-11-09T09:23:02;1.13;;;0.60;;
54909;SDS011;63189;51.240;9.964;2022-11-09T09:25:27;1.15;;;0.47;;
54909;SDS011;63189;51.240;9.964;2022-11-09T09:27:53;1.23;;;0.70;;
54909;SDS011;63189;51.240;9.964;2022-11-09T09:30:18;1.23;;;0.60;;
54909;SDS011;63189;51.240;9.964;2022-11-09T09:32:44;0.60;;;0.50;;
54909;SDS011;63189;51.240;9.964;2022-11-09T09:35:09;1.27;;;0.60;;
54909;SDS011;63189;51.240;9.964;2022-11-09T09:37:34;1.75;;;0.50;;
54909;SDS011;63189;51.240;9.964;2022-11-09T09:40:00;1.48;;;0.70;;
54909;SDS011;63189;51.240;9.964;2022-11-09T09:42:30;1.17;;;0.50;;
54909;SDS011;63189;51.240;9.964;2022-11-09T09:44:59;0.90;;;0.60;;
54909;SDS011;63189;51.240;9.964;2022-11-09T09:50:28;1.17;;;0.60;;
54909;SDS011;63189;51.240;9.964;2022-11-09T09:53:13;2.35;;;0.60;;
54909;SDS011;63189;51.240;9.964;2022-11-09T09:55:42;0.80;;;0.60;;
54909;SDS011;63189;51.240;9.964;2022-11-09T09:58:11;2.08;;;0.80;;
54909;SDS011;63189;51.240;9.964;2022-11-09T10:00:41;1.40;;;0.50;;
54909;SDS011;63189;51.240;9.964;2022-11-09T10:03:16;1.63;;;0.70;;
54909;SDS011;63189;51.240;9.964;2022-11-09T10:05:55;3.40;;;0.75;;
54909;SDS011;63189;51.240;9.964;2022-11-09T10:11:11;2.65;;;0.70;;
54909;SDS011;63189;51.240;9.964;2022-11-09T10:13:53;2.38;;;0.80;;
54909;SDS011;63189;51.240;9.964;2022-11-09T10:16:35;0.75;;;0.65;;
54909;SDS011;63189;51.240;9.964;2022-11-09T10:21:59;1.60;;;0.60;;
54909;SDS011;63189;51.240;9.964;2022-11-09T10:24:38;1.80;;;0.60;;
54909;SDS011;63189;51.240;9.964;2022-11-09T10:27:45;1.08;;;0.57;;
54909;SDS011;63189;51.240;9.964;2022-11-09T10:30:13;1.55;;;0.57;;
54909;SDS011;63189;51.240;9.964;2022-11-09T10:32:44;1.73;;;0.50;;
54909;SDS011;63189;51.240;9.964;2022-11-09T10:37:53;1.58;;;0.80;;
54909;SDS011;63189;51.240;9.964;2022-11-09T10:43:16;0.57;;;0.40;;
54909;SDS011;63189;51.240;9.964;2022-11-09T10:45:42;1.05;;;0.45;;
54909;SDS011;63189;51.240;9.964;2022-11-09T10:48:09;1.25;;;0.55;;
54909;SDS011;63189;51.240;9.964;2022-11-09T10:50:37;1.67;;;0.70;;
54909;SDS011;63189;51.240;9.964;2022-11-09T10:53:15;0.80;;;0.50;;
54909;SDS011;63189;51.240;9.964;2022-11-09T10:58:21;2.28;;;0.47;;
54909;SDS011;63189;51.240;9.964;2022-11-09T11:00:58;0.95;;;0.60;;
54909;SDS011;63189;51.240;9.964;2022-11-09T11:03:25;0.88;;;0.65;;
54909;SDS011;63189;51.240;9.964;2022-11-09T11:05:56;1.17;;;0.52;;
54909;SDS011;63189;51.240;9.964;2022-11-09T11:08:30;3.00;;;0.70;;
54909;SDS011;63189;51.240;9.964;2022-11-09T11:11:18;1.08;;;0.50;;
54909;SDS011;63189;51.240;9.964;2022-11-09T11:13:47;1.35;;;0.55;;
54909;SDS011;63189;51.240;9.964;2022-11-09T11:16:33;1.08;;;0.50;;
54909;SDS011;63189;51.240;9.964;2022-11-09T11:18:59;1.67;;;0.70;;
54909;SDS011;63189;51.240;9.964;2022-11-09T11:21:25;1.33;;;0.60;;
54909;SDS011;63189;51.240;9.964;2022-11-09T11:24:10;1.75;;;0.60;;
54909;SDS011;63189;51.240;9.964;2022-11-09T11:26:56;0.98;;;0.50;;
54909;SDS011;63189;51.240;9.964;2022-11-09T11:29:28;2.55;;;0.52;;
54909;SDS011;63189;51.240;9.964;2022-11-09T11:31:57;1.98;;;0.60;;
54909;SDS011;63189;51.240;9.964;2022-11-09T11:34:23;1.23;;;0.60;;
54909;SDS011;63189;51.240;9.964;2022-11-09T11:40:00;2.05;;;0.70;;
54909;SDS011;63189;51.240;9.964;2022-11-09T11:45:42;2.58;;;0.57;;
54909;SDS011;63189;51.240;9.964;2022-11-09T11:53:52;3.38;;;0.70;;
54909;SDS011;63189;51.240;9.964;2022-11-09T11:56:36;0.63;;;0.40;;
54909;SDS011;63189;51.240;9.964;2022-11-09T12:01:48;1.65;;;0.60;;
54909;SDS011;63189;51.240;9.964;2022-11-09T12:11:26;0.82;;;0.55;;
54909;SDS011;63189;51.240;9.964;2022-11-09T12:19:44;2.50;;;0.68;;
54909;SDS011;63189;51.240;9.964;2022-11-09T12:22:27;1.55;;;0.73;;
54909;SDS011;63189;51.240;9.964;2022-11-09T12:25:12;1.88;;;0.70;;
54909;SDS011;63189;51.240;9.964;2022-11-09T12:33:59;1.40;;;0.50;;
54909;SDS011;63189;51.240;9.964;2022-11-09T12:36:32;1.58;;;0.50;;
54909;SDS011;63189;51.240;9.964;2022-11-09T12:39:09;2.33;;;0.63;;
54909;SDS011;63189;51.240;9.964;2022-11-09T12:41:39;1.27;;;0.55;;
54909;SDS011;63189;51.240;9.964;2022-11-09T12:46:42;2.88;;;0.80;;
54909;SDS011;63189;51.240;9.964;2022-11-09T12:49:22;2.58;;;0.90;;
54909;SDS011;63189;51.240;9.964;2022-11-09T12:51:59;1.23;;;0.55;;
54909;SDS011;63189;51.240;9.964;2022-11-09T12:54:25;2.33;;;0.63;;
54909;SDS011;63189;51.240;9.964;2022-11-09T12:56:53;1.52;;;0.75;;
54909;SDS011;63189;51.240;9.964;2022-11-09T12:59:32;3.47;;;0.80;;
54909;SDS011;63189;51.240;9.964;2022-11-09T13:01:59;1.45;;;0.68;;
54909;SDS011;63189;51.240;9.964;2022-11-09T13:04:27;1.40;;;0.57;;
54909;SDS011;63189;51.240;9.964;2022-11-09T13:09:27;1.70;;;0.60;;
54909;SDS011;63189;51.240;9.964;2022-11-09T13:11:53;1.58;;;0.82;;
54909;SDS011;63189;51.240;9.964;2022-11-09T13:16:45;2.53;;;0.60;;
54909;SDS011;63189;51.240;9.964;2022-11-09T13:19:27;1.35;;;0.70;;
54909;SDS011;63189;51.240;9.964;2022-11-09T13:30:35;1.63;;;0.70;;
54909;SDS011;63189;51.240;9.964;2022-11-09T13:40:46;2.35;;;0.82;;
54909;SDS011;63189;51.240;9.964;2022-11-09T13:45:53;1.98;;;0.80;;
54909;SDS011;63189;51.240;9.964;2022-11-09T13:51:08;1.35;;;0.75;;
54909;SDS011;63189;51.240;9.964;2022-11-09T13:56:13;1.58;;;0.65;;
54909;SDS011;63189;51.240;9.964;2022-11-09T13:58:44;1.45;;;0.80;;
54909;SDS011;63189;51.240;9.964;2022-11-09T14:01:25;1.65;;;0.68;;
54909;SDS011;63189;51.240;9.964;2022-11-09T14:03:50;2.92;;;1.02;;
54909;SDS011;63189;51.240;9.964;2022-11-09T14:06:16;5.45;;;0.80;;
54909;SDS011;63189;51.240;9.964;2022-11-09T14:08:42;2.55;;;0.70;;
54909;SDS011;63189;51.240;9.964;2022-11-09T14:17:34;2.08;;;0.68;;
54909;SDS011;63189;51.240;9.964;2022-11-09T14:22:40;1.48;;;0.57;;
54909;SDS011;63189;51.240;9.964;2022-11-09T14:25:12;3.13;;;0.88;;
54909;SDS011;63189;51.240;9.964;2022-11-09T14:27:47;1.95;;;0.73;;
54909;SDS011;63189;51.240;9.964;2022-11-09T14:30:26;1.92;;;0.80;;
54909;SDS011;63189;51.240;9.964;2022-11-09T14:32:53;2.28;;;0.88;;
54909;SDS011;63189;51.240;9.964;2022-11-09T14:37:47;3.10;;;0.80;;
54909;SDS011;63189;51.240;9.964;2022-11-09T14:40:15;2.92;;;0.80;;
54909;SDS011;63189;51.240;9.964;2022-11-09T14:42:41;1.88;;;0.90;;
54909;SDS011;63189;51.240;9.964;2022-11-09T14:45:15;1.73;;;0.80;;
54909;SDS011;63189;51.240;9.964;2022-11-09T14:47:43;1.27;;;0.73;;
54909;SDS011;63189;51.240;9.964;2022-11-09T14:50:18;3.15;;;0.90;;
54909;SDS011;63189;51.240;9.964;2022-11-09T14:53:02;5.07;;;1.10;;
54909;SDS011;63189;51.240;9.964;2022-11-09T14:55:30;7.10;;;0.88;;
54909;SDS011;63189;51.240;9.964;2022-11-09T14:57:58;1.80;;;0.70;;
54909;SDS011;63189;51.240;9.964;2022-11-09T15:00:31;8.07;;;0.85;;
54909;SDS011;63189;51.240;9.964;2022-11-09T15:05:31;1.63;;;0.60;;
54909;SDS011;63189;51.240;9.964;2022-11-09T15:08:03;1.70;;;1.00;;
54909;SDS011;63189;51.240;9.964;2022-11-09T15:10:30;1.92;;;0.75;;
54909;SDS011;63189;51.240;9.964;2022-11-09T15:12:58;4.15;;;0.65;;
54909;SDS011;63189;51.240;9.964;2022-11-09T15:15:26;3.10;;;0.73;;
54909;SDS011;63189;51.240;9.964;2022-11-09T15:17:53;2.90;;;0.85;;
54909;SDS011;63189;51.240;9.964;2022-11-09T15:22:51;5.68;;;1.10;;
54909;SDS011;63189;51.240;9.964;2022-11-09T15:25:23;4.50;;;0.90;;
54909;SDS011;63189;51.240;9.964;2022-11-09T15:28:41;2.67;;;1.08;;
54909;SDS011;63189;51.240;9.964;2022-11-09T15:31:04;2.42;;;0.90;;
54909;SDS011;63189;51.240;9.964;2022-11-09T15:33:44;1.48;;;0.85;;
54909;SDS011;63189;51.240;9.964;2022-11-09T15:39:34;6.25;;;1.05;;
54909;SDS011;63189;51.240;9.964;2022-11-09T15:41:42;1.48;;;0.70;;
54909;SDS011;63189;51.240;9.964;2022-11-09T15:44:07;2.67;;;0.90;;
54909;SDS011;63189;51.240;9.964;2022-11-09T15:46:34;2.55;;;1.05;;
54909;SDS011;63189;51.240;9.964;2022-11-09T15:49:23;3.50;;;0.70;;
54909;SDS011;63189;51.240;9.964;2022-11-09T15:51:50;3.33;;;1.20;;
54909;SDS011;63189;51.240;9.964;2022-11-09T15:54:17;2.42;;;0.73;;
54909;SDS011;63189;51.240;9.964;2022-11-09T15:56:44;2.28;;;0.77;;
54909;SDS011;63189;51.240;9.964;2022-11-09T15:59:18;5.80;;;0.93;;
54909;SDS011;63189;51.240;9.964;2022-11-09T16:01:45;2.60;;;0.90;;
54909;SDS011;63189;51.240;9.964;2022-11-09T16:04:11;5.10;;;0.95;;
54909;SDS011;63189;51.240;9.964;2022-11-09T16:06:36;4.78;;;1.00;;
54909;SDS011;63189;51.240;9.964;2022-11-09T16:09:02;6.75;;;1.00;;
54909;SDS011;63189;51.240;9.964;2022-11-09T16:11:27;3.17;;;1.10;;
54909;SDS011;63189;51.240;9.964;2022-11-09T16:13:53;2.53;;;0.80;;
54909;SDS011;63189;51.240;9.964;2022-11-09T16:16:18;2.90;;;1.00;;
54909;SDS011;63189;51.240;9.964;2022-11-09T16:18:43;3.17;;;0.77;;
54909;SDS011;63189;51.240;9.964;2022-11-09T16:21:09;2.47;;;0.80;;
54909;SDS011;63189;51.240;9.964;2022-11-09T16:23:36;5.40;;;1.15;;
54909;SDS011;63189;51.240;9.964;2022-11-09T16:26:05;5.53;;;0.90;;
54909;SDS011;63189;51.240;9.964;2022-11-09T16:28:32;3.85;;;0.82;;
54909;SDS011;63189;51.240;9.964;2022-11-09T16:30:57;4.05;;;1.60;;
54909;SDS011;63189;51.240;9.964;2022-11-09T16:33:23;3.72;;;1.15;;
54909;SDS011;63189;51.240;9.964;2022-11-09T16:35:48;3.97;;;1.70;;
54909;SDS011;63189;51.240;9.964;2022-11-09T16:38:14;3.42;;;1.10;;
54909;SDS011;63189;51.240;9.964;2022-11-09T16:40:39;2.70;;;1.00;;